createdAt,value
2018-11-12T00:00:35.495Z,9.06
2018-11-12T00:03:03.964Z,9.11
2018-11-12T00:05:32.283Z,9.33
2018-11-12T00:08:00.923Z,9.40
2018-11-12T00:10:29.891Z,9.29
2018-11-12T00:12:58.207Z,9.27
2018-11-12T00:15:26.527Z,9.26
2018-11-12T00:17:54.859Z,9.25
2018-11-12T00:20:23.151Z,9.23
2018-11-12T00:22:51.487Z,9.23
2018-11-12T00:25:19.787Z,9.33
2018-11-12T00:27:48.111Z,9.32
2018-11-12T00:30:17.771Z,9.43
2018-11-12T00:32:46.984Z,9.59
2018-11-12T00:35:15.767Z,9.82
2018-11-12T00:37:44.788Z,10.09
2018-11-12T00:40:14.372Z,10.16
2018-11-12T00:42:43.383Z,10.28
2018-11-12T00:45:12.052Z,10.35
2018-11-12T00:47:40.375Z,10.28
2018-11-12T00:50:09.863Z,10.42
2018-11-12T00:52:38.323Z,10.57
2018-11-12T00:55:07.383Z,10.65
2018-11-12T00:57:35.678Z,10.63
2018-11-12T01:00:04.115Z,10.64
2018-11-12T01:02:32.424Z,10.75
2018-11-12T01:05:00.808Z,10.73
2018-11-12T01:07:29.135Z,10.88
2018-11-12T01:09:57.430Z,10.90
2018-11-12T01:12:26.132Z,10.94
2018-11-12T01:14:55.235Z,11.04
2018-11-12T01:17:23.535Z,11.11
2018-11-12T01:19:52.358Z,11.13
2018-11-12T01:22:21.652Z,11.21
2018-11-12T01:24:49.953Z,11.27
2018-11-12T01:27:18.255Z,11.39
2018-11-12T01:29:46.563Z,11.39
2018-11-12T01:32:14.867Z,11.37
2018-11-12T01:34:43.186Z,11.40
2018-11-12T01:37:12.580Z,11.51
2018-11-12T01:39:40.903Z,11.53
2018-11-12T01:42:09.682Z,11.59
2018-11-12T01:44:37.927Z,11.56
2018-11-12T01:47:06.235Z,11.62
2018-11-12T01:49:34.566Z,11.50
2018-11-12T01:52:02.924Z,11.48
2018-11-12T01:54:31.246Z,11.35
2018-11-12T01:56:59.598Z,11.36
2018-11-12T01:59:27.931Z,11.32
2018-11-12T02:01:56.675Z,11.27
2018-11-12T02:04:25.003Z,11.47
2018-11-12T02:06:54.003Z,11.48
2018-11-12T02:09:22.337Z,11.53
2018-11-12T02:11:50.648Z,11.57
2018-11-12T02:14:18.947Z,11.61
2018-11-12T02:16:47.745Z,11.67
2018-11-12T02:19:16.091Z,11.65
2018-11-12T02:21:44.383Z,11.70
2018-11-12T02:24:13.767Z,11.61
2018-11-12T02:26:42.070Z,11.62
2018-11-12T02:29:10.434Z,11.78
2018-11-12T02:31:39.480Z,11.69
2018-11-12T02:34:07.783Z,11.84
2018-11-12T02:36:36.339Z,11.86
2018-11-12T02:39:08.027Z,12.02
2018-11-12T02:41:36.355Z,11.91
2018-11-12T02:44:06.494Z,12.00
2018-11-12T02:46:35.255Z,12.01
2018-11-12T02:49:03.568Z,11.99
2018-11-12T02:51:32.785Z,11.98
2018-11-12T02:54:01.369Z,12.05
2018-11-12T02:56:30.109Z,11.90
2018-11-12T02:58:58.432Z,11.95
2018-11-12T03:01:27.087Z,11.98
2018-11-12T03:03:55.847Z,11.97
2018-11-12T03:06:24.236Z,12.01
2018-11-12T03:08:52.621Z,12.01
2018-11-12T03:11:20.935Z,11.93
2018-11-12T03:13:49.263Z,11.92
2018-11-12T03:16:17.995Z,12.05
2018-11-12T03:18:46.869Z,11.97
2018-11-12T03:21:15.167Z,12.05
2018-11-12T03:23:43.719Z,11.91
2018-11-12T03:26:12.077Z,11.94
2018-11-12T03:28:40.564Z,12.16
2018-11-12T03:31:09.264Z,12.08
2018-11-12T03:33:37.567Z,12.12
2018-11-12T03:36:06.288Z,12.15
2018-11-12T03:38:35.042Z,12.13
2018-11-12T03:41:03.412Z,12.21
2018-11-12T03:43:31.715Z,12.20
2018-11-12T03:46:00.053Z,12.23
2018-11-12T03:48:28.343Z,12.10
2018-11-12T03:50:57.407Z,12.15
2018-11-12T03:53:26.863Z,12.20
2018-11-12T03:55:55.187Z,12.23
2018-11-12T03:58:23.479Z,12.25
2018-11-12T04:00:52.823Z,12.21
2018-11-12T04:03:21.655Z,12.16
2018-11-12T04:05:50.199Z,12.33
2018-11-12T04:08:18.518Z,12.19
2018-11-12T04:10:46.810Z,12.30
2018-11-12T04:13:15.518Z,12.30
2018-11-12T04:15:43.803Z,12.31
2018-11-12T04:19:14.374Z,12.24
2018-11-12T04:21:43.151Z,12.39
2018-11-12T04:24:11.765Z,12.38
2018-11-12T04:26:40.063Z,12.32
2018-11-12T04:29:08.721Z,12.28
2018-11-12T04:31:38.007Z,12.33
2018-11-12T04:34:06.598Z,12.45
2018-11-12T04:36:34.905Z,12.45
2018-11-12T04:39:03.496Z,12.50
2018-11-12T04:41:31.795Z,12.57
2018-11-12T04:44:00.109Z,12.54
2018-11-12T04:46:28.455Z,12.58
2018-11-12T04:48:56.776Z,12.54
2018-11-12T04:51:25.299Z,12.59
2018-11-12T04:53:53.742Z,12.61
2018-11-12T04:56:22.374Z,12.60
2018-11-12T04:58:51.383Z,12.59
2018-11-12T05:01:19.871Z,12.60
2018-11-12T05:03:48.302Z,12.51
2018-11-12T05:06:16.883Z,12.54
2018-11-12T05:08:45.248Z,12.65
2018-11-12T05:11:13.711Z,12.66
2018-11-12T05:13:42.967Z,12.66
2018-11-12T05:16:11.247Z,12.74
2018-11-12T05:18:39.925Z,12.79
2018-11-12T05:21:08.235Z,12.82
2018-11-12T05:23:36.563Z,12.80
2018-11-12T05:26:04.880Z,12.79
2018-11-12T05:28:33.212Z,12.86
2018-11-12T05:31:01.504Z,13.12
2018-11-12T05:33:29.815Z,13.15
2018-11-12T05:35:58.571Z,13.07
2018-11-12T05:38:27.213Z,13.04
2018-11-12T05:40:55.978Z,12.97
2018-11-12T05:43:24.304Z,13.06
2018-11-12T05:45:52.631Z,12.94
2018-11-12T05:48:20.954Z,12.98
2018-11-12T05:50:49.598Z,13.00
2018-11-12T05:53:18.679Z,12.99
2018-11-12T05:55:47.011Z,13.03
2018-11-12T05:58:15.332Z,13.05
2018-11-12T06:00:43.675Z,13.03
2018-11-12T06:03:12.210Z,13.06
2018-11-12T06:05:40.519Z,13.06
2018-11-12T06:08:08.819Z,12.98
2018-11-12T06:10:37.207Z,13.03
2018-11-12T06:13:05.682Z,12.99
2018-11-12T06:15:33.995Z,13.13
2018-11-12T06:18:02.697Z,13.31
2018-11-12T06:20:32.203Z,13.38
2018-11-12T06:23:00.572Z,13.26
2018-11-12T06:25:30.356Z,13.21
2018-11-12T06:27:58.854Z,13.28
2018-11-12T06:30:28.643Z,13.24
2018-11-12T06:32:56.947Z,13.28
2018-11-12T06:35:25.288Z,13.09
2018-11-12T06:37:54.024Z,13.10
2018-11-12T06:40:23.502Z,13.16
2018-11-12T06:42:52.026Z,13.23
2018-11-12T06:45:21.526Z,13.21
2018-11-12T06:47:50.878Z,13.21
2018-11-12T06:50:20.423Z,13.26
2018-11-12T06:52:48.803Z,13.20
2018-11-12T06:55:17.710Z,13.37
2018-11-12T06:57:46.436Z,13.42
2018-11-12T07:00:16.960Z,13.32
2018-11-12T07:03:47.930Z,13.26
2018-11-12T07:06:16.244Z,13.45
2018-11-12T07:08:44.533Z,13.56
2018-11-12T07:11:12.864Z,13.55
2018-11-12T07:13:41.182Z,13.56
2018-11-12T07:16:09.507Z,13.75
2018-11-12T07:18:37.836Z,13.95
2018-11-12T07:21:06.303Z,13.80
2018-11-12T07:23:34.607Z,13.94
2018-11-12T07:26:02.969Z,14.00
2018-11-12T07:28:31.280Z,13.96
2018-11-12T07:30:59.646Z,13.98
2018-11-12T07:33:27.927Z,14.08
2018-11-12T07:35:56.256Z,14.01
2018-11-12T07:38:24.923Z,14.20
2018-11-12T07:40:53.243Z,14.21
2018-11-12T07:43:21.540Z,14.18
2018-11-12T07:45:49.873Z,14.33
2018-11-12T07:48:18.164Z,14.36
2018-11-12T07:50:46.475Z,14.50
2018-11-12T07:53:14.826Z,14.54
2018-11-12T07:55:43.142Z,14.55
2018-11-12T07:58:11.440Z,14.48
2018-11-12T08:00:39.755Z,14.57
2018-11-12T08:03:09.321Z,14.54
2018-11-12T08:05:38.049Z,14.88
2018-11-12T08:08:06.811Z,14.92
2018-11-12T08:10:35.168Z,14.81
2018-11-12T08:13:03.531Z,15.01
2018-11-12T08:15:31.856Z,14.85
2018-11-12T08:18:00.199Z,14.75
2018-11-12T08:20:28.559Z,14.68
2018-11-12T08:22:56.911Z,14.67
2018-11-12T08:25:25.232Z,14.77
2018-11-12T08:27:53.548Z,14.83
2018-11-12T08:30:23.107Z,14.77
2018-11-12T08:32:52.648Z,14.80
2018-11-12T08:35:20.988Z,14.78
2018-11-12T08:37:49.830Z,14.77
2018-11-12T08:40:19.367Z,14.80
2018-11-12T08:42:47.675Z,14.94
2018-11-12T08:45:16.023Z,14.92
2018-11-12T08:47:45.787Z,15.02
2018-11-12T08:50:16.041Z,15.09
2018-11-12T08:52:45.420Z,15.09
2018-11-12T08:55:15.389Z,15.18
2018-11-12T08:57:45.355Z,15.31
2018-11-12T09:00:13.967Z,15.36
2018-11-12T09:02:42.619Z,15.54
2018-11-12T09:05:12.971Z,15.56
2018-11-12T09:07:42.351Z,15.52
2018-11-12T09:10:15.701Z,15.36
2018-11-12T09:12:44.315Z,15.45
2018-11-12T09:15:13.031Z,15.42
2018-11-12T09:17:42.119Z,15.35
2018-11-12T09:20:12.682Z,15.36
2018-11-12T09:22:41.039Z,15.56
2018-11-12T09:25:12.816Z,15.46
2018-11-12T09:27:41.218Z,15.44
2018-11-12T09:30:12.012Z,15.47
2018-11-12T09:32:40.971Z,15.34
2018-11-12T09:35:10.691Z,15.30
2018-11-12T09:37:39.005Z,15.44
2018-11-12T09:40:10.655Z,15.55
2018-11-12T09:42:38.976Z,15.46
2018-11-12T09:45:07.880Z,15.62
2018-11-12T09:47:36.457Z,15.84
2018-11-12T09:50:05.232Z,15.80
2018-11-12T09:52:33.552Z,15.95
2018-11-12T09:55:02.135Z,16.21
2018-11-12T09:57:30.466Z,16.18
2018-11-12T09:59:58.793Z,16.08
2018-11-12T10:02:27.942Z,16.07
2018-11-12T10:04:56.773Z,16.16
2018-11-12T10:07:25.489Z,15.82
2018-11-12T10:09:54.303Z,16.05
2018-11-12T10:12:23.608Z,15.95
2018-11-12T10:14:51.039Z,15.77
2018-11-12T10:17:20.336Z,15.82
2018-11-12T10:19:45.624Z,15.80
2018-11-12T10:22:13.891Z,15.72
2018-11-12T10:24:42.182Z,15.84
2018-11-12T10:27:10.571Z,16.02
2018-11-12T10:29:38.891Z,16.06
2018-11-12T10:32:07.244Z,16.24
2018-11-12T10:34:35.537Z,16.07
2018-11-12T10:37:03.856Z,16.33
2018-11-12T10:39:32.556Z,16.64
2018-11-12T10:42:00.880Z,16.33
2018-11-12T10:44:29.171Z,16.58
2018-11-12T10:46:57.491Z,16.38
2018-11-12T10:49:25.800Z,16.81
2018-11-12T10:51:54.129Z,16.46
2018-11-12T10:54:22.538Z,16.35
2018-11-12T10:56:50.788Z,16.29
2018-11-12T10:59:19.080Z,16.05
2018-11-12T11:01:53.364Z,16.28
2018-11-12T11:04:22.915Z,16.32
2018-11-12T11:06:51.233Z,16.40
2018-11-12T11:09:19.579Z,16.60
2018-11-12T11:11:47.928Z,16.54
2018-11-12T11:14:16.460Z,16.53
2018-11-12T11:16:44.792Z,16.34
2018-11-12T11:19:13.071Z,16.26
2018-11-12T11:21:41.382Z,16.25
2018-11-12T11:24:10.067Z,15.98
2018-11-12T11:26:38.411Z,16.12
2018-11-12T11:29:06.771Z,16.12
2018-11-12T11:31:35.075Z,16.02
2018-11-12T11:34:03.399Z,16.04
2018-11-12T11:36:31.719Z,15.93
2018-11-12T11:39:00.025Z,16.02
2018-11-12T11:41:28.440Z,16.31
2018-11-12T11:43:57.644Z,16.11
2018-11-12T11:46:25.907Z,16.10
2018-11-12T11:48:54.278Z,16.14
2018-11-12T11:51:22.711Z,16.18
2018-11-12T11:53:51.031Z,15.97
2018-11-12T11:56:19.393Z,16.08
2018-11-12T11:58:47.691Z,16.02
2018-11-12T12:01:15.987Z,16.11
2018-11-12T12:03:44.299Z,16.02
2018-11-12T12:06:12.600Z,16.16
2018-11-12T12:08:40.973Z,16.24
2018-11-12T12:11:09.684Z,16.40
2018-11-12T12:13:38.040Z,16.47
2018-11-12T12:16:06.319Z,16.62
2018-11-12T12:18:34.681Z,16.82
2018-11-12T12:21:03.027Z,17.02
2018-11-12T12:23:31.303Z,17.31
2018-11-12T12:25:59.997Z,18.18
2018-11-12T12:28:28.298Z,18.86
2018-11-12T12:30:56.607Z,19.89
2018-11-12T12:33:24.924Z,20.79
2018-11-12T12:35:53.282Z,20.84
2018-11-12T12:38:21.556Z,22.07
2018-11-12T12:40:49.855Z,24.82
2018-11-12T12:43:18.179Z,21.88
2018-11-12T12:45:46.674Z,21.76
2018-11-12T12:48:14.843Z,23.01
2018-11-12T12:50:43.124Z,21.37
2018-11-12T12:53:11.435Z,19.44
2018-11-12T12:55:39.892Z,18.98
2018-11-12T12:58:08.135Z,19.46
2018-11-12T13:00:36.427Z,19.21
2018-11-12T13:03:04.763Z,18.89
2018-11-12T13:05:33.092Z,19.85
2018-11-12T13:08:01.414Z,18.64
2018-11-12T13:10:29.747Z,20.34
2018-11-12T13:12:58.039Z,20.39
2018-11-12T13:15:26.371Z,19.10
2018-11-12T13:17:54.672Z,18.07
2018-11-12T13:20:24.280Z,18.25
2018-11-12T13:22:52.603Z,18.94
2018-11-12T13:25:20.919Z,19.39
2018-11-12T13:27:49.419Z,19.73
2018-11-12T13:30:19.178Z,19.93
2018-11-12T13:32:48.122Z,19.90
2018-11-12T13:35:17.859Z,19.41
2018-11-12T13:37:46.165Z,19.81
2018-11-12T13:40:16.111Z,20.18
2018-11-12T13:42:45.949Z,20.94
2018-11-12T13:45:14.308Z,20.43
2018-11-12T13:47:42.713Z,19.50
2018-11-12T13:50:14.972Z,19.23
2018-11-12T13:52:43.426Z,21.05
2018-11-12T13:55:12.980Z,19.72
2018-11-12T13:57:41.275Z,20.48
2018-11-12T14:00:12.565Z,20.74
2018-11-12T14:02:41.216Z,20.86
2018-11-12T14:05:11.635Z,20.29
2018-11-12T14:07:40.108Z,20.33
2018-11-12T14:10:09.691Z,19.32
2018-11-12T14:12:38.395Z,18.60
2018-11-12T14:15:09.783Z,18.27
2018-11-12T14:17:38.363Z,19.56
2018-11-12T14:20:07.209Z,21.01
2018-11-12T14:22:36.003Z,22.81
2018-11-12T14:25:04.491Z,22.94
2018-11-12T14:27:32.857Z,21.22
2018-11-12T14:30:01.135Z,20.88
2018-11-12T14:32:30.247Z,19.75
2018-11-12T14:34:58.538Z,18.96
2018-11-12T14:37:26.908Z,18.40
2018-11-12T14:39:55.636Z,18.08
2018-11-12T14:42:23.971Z,17.98
2018-11-12T14:44:52.275Z,17.65
2018-11-12T14:47:20.589Z,17.38
2018-11-12T14:49:48.895Z,17.11
2018-11-12T14:52:17.631Z,17.05
2018-11-12T14:54:45.919Z,16.98
2018-11-12T14:57:14.231Z,16.93
2018-11-12T14:59:42.520Z,16.99
2018-11-12T15:02:10.831Z,16.97
2018-11-12T15:04:39.132Z,16.95
2018-11-12T15:07:07.492Z,16.85
2018-11-12T15:09:35.792Z,16.78
2018-11-12T15:12:04.263Z,16.86
2018-11-12T15:14:33.003Z,16.68
2018-11-12T15:17:01.339Z,16.41
2018-11-12T15:19:29.715Z,15.67
2018-11-12T15:21:58.040Z,14.98
2018-11-12T15:24:26.331Z,14.74
2018-11-12T15:26:54.635Z,14.50
2018-11-12T15:29:23.038Z,14.37
2018-11-12T15:31:51.332Z,14.20
2018-11-12T15:34:19.656Z,14.20
2018-11-12T15:36:48.084Z,14.12
2018-11-12T15:39:16.304Z,14.06
2018-11-12T15:41:44.636Z,14.11
2018-11-12T15:44:12.948Z,14.12
2018-11-12T15:46:41.292Z,14.05
2018-11-12T15:49:09.611Z,14.02
2018-11-12T15:51:37.903Z,14.02
2018-11-12T15:54:06.750Z,13.90
2018-11-12T15:56:35.055Z,13.82
2018-11-12T15:59:03.499Z,13.83
2018-11-12T16:01:31.827Z,13.79
2018-11-12T16:04:00.147Z,13.75
2018-11-12T16:06:28.570Z,13.66
2018-11-12T16:08:56.805Z,13.64
2018-11-12T16:11:25.113Z,13.57
2018-11-12T16:13:53.427Z,13.54
2018-11-12T16:16:21.735Z,13.44
2018-11-12T16:18:50.039Z,13.42
2018-11-12T16:21:18.327Z,13.37
2018-11-12T16:23:46.687Z,13.33
2018-11-12T16:26:14.979Z,13.32
2018-11-12T16:28:43.292Z,13.30
2018-11-12T16:31:11.596Z,13.30
2018-11-12T16:33:39.924Z,13.46
2018-11-12T16:36:08.228Z,13.44
2018-11-12T16:38:36.547Z,13.46
2018-11-12T16:41:04.883Z,13.42
2018-11-12T16:43:33.207Z,13.33
2018-11-12T16:46:01.592Z,13.32
2018-11-12T16:48:29.884Z,13.24
2018-11-12T16:50:58.185Z,13.23
2018-11-12T16:53:26.527Z,13.28
2018-11-12T16:55:54.818Z,13.25
2018-11-12T16:58:23.127Z,13.25
2018-11-12T17:00:51.428Z,13.28
2018-11-12T17:03:19.748Z,13.31
2018-11-12T17:05:48.040Z,13.31
2018-11-12T17:08:16.339Z,13.30
2018-11-12T17:10:44.636Z,13.32
2018-11-12T17:13:12.960Z,13.26
2018-11-12T17:15:41.271Z,13.33
2018-11-12T17:18:09.585Z,13.36
2018-11-12T17:20:37.912Z,13.33
2018-11-12T17:23:06.354Z,13.35
2018-11-12T17:25:34.611Z,13.30
2018-11-12T17:28:02.923Z,13.30
2018-11-12T17:30:31.239Z,13.33
2018-11-12T17:32:59.540Z,13.25
2018-11-12T17:35:27.884Z,13.23
2018-11-12T17:37:56.176Z,13.18
2018-11-12T17:40:25.863Z,13.24
2018-11-12T17:42:54.829Z,13.22
2018-11-12T17:45:24.575Z,13.15
2018-11-12T17:47:53.845Z,13.14
2018-11-12T17:50:22.211Z,13.17
2018-11-12T17:52:50.573Z,13.13
2018-11-12T17:55:18.892Z,13.11
2018-11-12T17:57:47.187Z,13.11
2018-11-12T18:00:23.948Z,13.14
2018-11-12T18:02:52.250Z,13.20
2018-11-12T18:05:20.604Z,13.11
2018-11-12T18:07:49.941Z,13.03
2018-11-12T18:10:18.553Z,13.11
2018-11-12T18:12:46.899Z,13.04
2018-11-12T18:15:16.479Z,13.00
2018-11-12T18:17:44.893Z,12.96
2018-11-12T18:20:15.871Z,13.01
2018-11-12T18:22:44.167Z,12.96
2018-11-12T18:25:12.879Z,12.99
2018-11-12T18:27:41.175Z,13.01
2018-11-12T18:30:13.659Z,13.01
2018-11-12T18:32:42.383Z,13.03
2018-11-12T18:35:10.895Z,13.03
2018-11-12T18:37:39.278Z,13.17
2018-11-12T18:40:09.539Z,13.10
2018-11-12T18:42:37.835Z,13.09
2018-11-12T18:45:09.044Z,13.14
2018-11-12T18:47:37.377Z,13.09
2018-11-12T18:50:07.452Z,13.15
2018-11-12T18:52:35.781Z,13.16
2018-11-12T18:55:04.360Z,13.04
2018-11-12T18:57:32.741Z,13.03
2018-11-12T19:00:01.019Z,13.14
2018-11-12T19:02:29.352Z,13.02
2018-11-12T19:04:57.759Z,12.98
2018-11-12T19:07:26.103Z,12.91
2018-11-12T19:09:54.419Z,12.89
2018-11-12T19:12:22.747Z,12.88
2018-11-12T19:14:51.063Z,12.91
2018-11-12T19:17:19.895Z,12.92
2018-11-12T19:19:48.200Z,12.91
2018-11-12T19:22:16.540Z,12.90
2018-11-12T19:24:44.892Z,12.86
2018-11-12T19:27:13.325Z,12.84
2018-11-12T19:29:41.708Z,12.80
2018-11-12T19:32:10.024Z,12.80
2018-11-12T19:34:38.324Z,12.71
2018-11-12T19:37:06.950Z,12.77
2018-11-12T19:39:35.263Z,12.81
2018-11-12T19:42:04.215Z,12.85
2018-11-12T19:44:32.888Z,12.80
2018-11-12T19:47:01.220Z,12.78
2018-11-12T19:49:29.527Z,12.76
2018-11-12T19:51:57.957Z,12.77
2018-11-12T19:54:26.209Z,12.73
2018-11-12T19:56:54.551Z,12.74
2018-11-12T19:59:23.056Z,12.74
2018-11-12T20:01:51.493Z,12.85
2018-11-12T20:04:19.898Z,12.72
2018-11-12T20:06:48.575Z,12.72
2018-11-12T20:09:16.887Z,12.74
2018-11-12T20:11:46.011Z,12.67
2018-11-12T20:14:14.307Z,12.71
2018-11-12T20:16:42.641Z,12.67
2018-11-12T20:19:10.944Z,12.64
2018-11-12T20:21:39.275Z,12.62
2018-11-12T20:24:07.590Z,12.58
2018-11-12T20:26:36.052Z,12.59
2018-11-12T20:29:04.382Z,12.58
2018-11-12T20:31:32.790Z,12.55
2018-11-12T20:34:01.214Z,12.52
2018-11-12T20:36:29.540Z,12.48
2018-11-12T20:38:57.898Z,12.53
2018-11-12T20:41:27.191Z,12.47
2018-11-12T20:43:55.523Z,12.39
2018-11-12T20:46:23.996Z,12.21
2018-11-12T20:48:52.323Z,12.19
2018-11-12T20:51:20.695Z,12.18
2018-11-12T20:53:49.069Z,12.09
2018-11-12T20:56:17.678Z,12.02
2018-11-12T20:58:46.023Z,12.02
2018-11-12T21:01:14.318Z,11.98
2018-11-12T21:03:42.631Z,11.96
2018-11-12T21:06:10.944Z,11.93
2018-11-12T21:08:39.304Z,11.91
2018-11-12T21:11:07.611Z,11.89
2018-11-12T21:13:36.055Z,11.89
2018-11-12T21:16:04.388Z,11.92
2018-11-12T21:18:32.723Z,12.01
2018-11-12T21:21:01.031Z,11.91
2018-11-12T21:23:29.445Z,11.84
2018-11-12T21:25:58.156Z,11.80
2018-11-12T21:28:26.495Z,11.74
2018-11-12T21:30:54.795Z,11.73
2018-11-12T21:33:23.087Z,11.68
2018-11-12T21:35:51.636Z,11.66
2018-11-12T21:38:19.958Z,11.61
2018-11-12T21:40:48.336Z,11.58
2018-11-12T21:43:16.783Z,11.55
2018-11-12T21:45:45.004Z,11.42
2018-11-12T21:48:13.313Z,11.40
2018-11-12T21:50:41.665Z,11.36
2018-11-12T21:53:09.984Z,11.40
2018-11-12T21:55:38.320Z,11.26
2018-11-12T21:58:06.636Z,11.22
2018-11-12T22:00:34.959Z,11.20
2018-11-12T22:03:04.467Z,11.13
2018-11-12T22:05:33.582Z,11.17
2018-11-12T22:08:02.484Z,11.05
2018-11-12T22:10:30.808Z,11.02
2018-11-12T22:12:59.087Z,11.01
2018-11-12T22:15:27.407Z,10.96
2018-11-12T22:17:55.995Z,10.98
2018-11-12T22:20:25.709Z,10.98
2018-11-12T22:22:54.007Z,10.87
2018-11-12T22:25:22.988Z,10.83
2018-11-12T22:27:52.079Z,10.84
2018-11-12T22:30:24.684Z,10.81
2018-11-12T22:32:53.775Z,10.82
2018-11-12T22:35:22.097Z,10.82
2018-11-12T22:37:50.527Z,10.78
2018-11-12T22:40:19.479Z,10.74
2018-11-12T22:42:49.043Z,10.73
2018-11-12T22:45:19.026Z,10.75
2018-11-12T22:47:47.806Z,10.75
2018-11-12T22:50:16.107Z,10.73
2018-11-12T22:52:45.027Z,10.75
2018-11-12T22:55:14.471Z,10.77
2018-11-12T22:57:42.783Z,10.69
2018-11-12T23:00:18.716Z,10.64
2018-11-12T23:02:47.339Z,10.65
2018-11-12T23:05:16.700Z,10.61
2018-11-12T23:07:45.773Z,10.74
2018-11-12T23:10:14.363Z,10.59
2018-11-12T23:12:42.704Z,10.66
2018-11-12T23:15:12.048Z,10.63
2018-11-12T23:17:40.647Z,10.62
2018-11-12T23:20:15.371Z,10.60
2018-11-12T23:22:44.365Z,10.62
2018-11-12T23:25:12.975Z,10.67
2018-11-12T23:27:42.158Z,10.64
2018-11-12T23:30:14.107Z,10.66
2018-11-12T23:32:42.439Z,10.72
2018-11-12T23:35:12.451Z,10.81
2018-11-12T23:37:41.328Z,10.83
2018-11-12T23:40:10.398Z,10.69
2018-11-12T23:42:38.748Z,10.72
2018-11-12T23:45:07.894Z,10.81
2018-11-12T23:47:36.879Z,10.74
2018-11-12T23:50:07.126Z,10.80
2018-11-12T23:52:35.947Z,10.70
2018-11-12T23:55:04.306Z,10.71
2018-11-12T23:57:32.652Z,10.82
